createdAt,value
2017-12-01T00:04:12.698Z,3.10
2017-12-01T00:09:40.825Z,6.40
2017-12-01T00:15:08.966Z,3.50
2017-12-01T00:20:37.104Z,5.23
2017-12-01T00:26:05.225Z,4.77
2017-12-01T00:31:33.381Z,7.50
2017-12-01T00:37:01.523Z,4.10
2017-12-01T00:42:29.673Z,3.93
2017-12-01T00:47:57.880Z,3.97
2017-12-01T00:53:26.039Z,5.43
2017-12-01T00:58:54.230Z,4.17
2017-12-01T01:04:22.376Z,7.23
2017-12-01T01:09:52.198Z,4.10
2017-12-01T01:15:21.123Z,3.47
2017-12-01T01:20:49.267Z,7.17
2017-12-01T01:26:18.189Z,6.60
2017-12-01T01:31:46.945Z,7.20
2017-12-01T01:37:15.324Z,6.47
2017-12-01T01:42:43.494Z,5.00
2017-12-01T01:48:11.944Z,13.37
2017-12-01T01:53:40.090Z,10.20
2017-12-01T01:59:09.477Z,5.40
2017-12-01T02:04:38.394Z,7.30
2017-12-01T02:10:06.931Z,4.27
2017-12-01T02:15:35.376Z,5.57
2017-12-01T02:21:04.860Z,3.60
2017-12-01T02:26:33.043Z,6.50
2017-12-01T02:32:01.958Z,3.80
2017-12-01T02:37:30.123Z,4.63
2017-12-01T02:42:58.265Z,3.50
2017-12-01T02:48:26.423Z,4.90
2017-12-01T02:53:54.598Z,4.80
2017-12-01T02:59:22.754Z,3.33
2017-12-01T03:04:50.886Z,6.63
2017-12-01T03:10:19.803Z,5.50
2017-12-01T03:15:47.950Z,4.50
2017-12-01T03:21:16.879Z,5.30
2017-12-01T03:26:45.005Z,6.00
2017-12-01T03:32:13.931Z,7.40
2017-12-01T03:37:42.129Z,6.67
2017-12-01T03:43:11.006Z,4.20
2017-12-01T03:48:54.315Z,2.90
2017-12-01T03:54:22.747Z,5.50
2017-12-01T03:59:52.149Z,3.27
2017-12-01T04:05:21.063Z,4.33
2017-12-01T04:11:07.867Z,5.40
2017-12-01T04:16:36.010Z,7.90
2017-12-01T04:22:04.168Z,4.10
2017-12-01T04:27:32.304Z,7.20
2017-12-01T04:33:01.221Z,3.90
2017-12-01T04:38:29.354Z,4.93
2017-12-01T04:44:05.038Z,4.23
2017-12-01T04:49:33.191Z,4.70
2017-12-01T04:55:02.098Z,5.13
2017-12-01T05:00:30.234Z,3.40
2017-12-01T05:06:09.922Z,3.00
2017-12-01T05:11:38.862Z,3.77
2017-12-01T05:17:07.999Z,4.53
2017-12-01T05:22:40.120Z,7.03
2017-12-01T05:28:08.361Z,7.10
2017-12-01T05:33:37.323Z,16.03
2017-12-01T05:39:12.168Z,9.27
2017-12-01T05:44:40.297Z,14.10
2017-12-01T05:50:09.232Z,20.67
2017-12-01T05:55:38.990Z,15.40
2017-12-01T06:01:07.159Z,12.00
2017-12-01T06:06:36.131Z,7.70
2017-12-01T06:12:04.262Z,4.90
2017-12-01T06:17:32.411Z,5.03
2017-12-01T06:23:00.603Z,4.40
2017-12-01T06:28:28.722Z,4.53
2017-12-01T06:33:56.912Z,4.70
2017-12-01T06:39:25.050Z,8.53
2017-12-01T06:44:53.968Z,7.00
2017-12-01T06:50:22.103Z,6.87
2017-12-01T06:55:51.021Z,6.10
2017-12-01T07:01:19.179Z,6.00
2017-12-01T07:06:47.338Z,7.93
2017-12-01T07:12:16.243Z,5.00
2017-12-01T07:17:44.382Z,6.37
2017-12-01T07:23:12.531Z,10.77
2017-12-01T07:28:40.682Z,5.90
2017-12-01T07:34:08.828Z,9.80
2017-12-01T07:39:36.961Z,14.43
2017-12-01T07:45:10.675Z,15.30
2017-12-01T07:50:38.823Z,8.17
2017-12-01T07:56:06.972Z,13.27
2017-12-01T08:01:35.107Z,10.30
2017-12-01T08:07:03.268Z,9.60
2017-12-01T08:12:31.407Z,8.03
2017-12-01T08:18:17.521Z,6.60
2017-12-01T08:29:57.952Z,9.07
2017-12-01T08:35:26.863Z,6.03
2017-12-01T08:40:55.919Z,4.53
2017-12-01T08:46:24.961Z,6.97
2017-12-01T08:51:53.862Z,7.03
2017-12-01T08:57:22.006Z,4.17
2017-12-01T09:02:50.144Z,5.27
2017-12-01T09:08:19.029Z,5.10
2017-12-01T09:13:47.176Z,5.37
2017-12-01T09:19:15.319Z,3.73
2017-12-01T09:24:44.225Z,6.23
2017-12-01T09:30:12.346Z,4.30
2017-12-01T09:35:40.484Z,7.20
2017-12-01T09:41:09.408Z,6.97
2017-12-01T09:46:37.528Z,4.60
2017-12-01T09:52:05.656Z,3.33
2017-12-01T09:57:34.545Z,4.57
2017-12-01T10:03:02.719Z,6.70
2017-12-01T10:08:31.638Z,6.47
2017-12-01T10:13:59.764Z,4.80
2017-12-01T10:19:27.923Z,6.33
2017-12-01T10:24:56.087Z,10.23
2017-12-01T10:30:24.234Z,6.80
2017-12-01T10:35:53.140Z,5.50
2017-12-01T10:41:21.266Z,5.40
2017-12-01T10:46:49.414Z,4.60
2017-12-01T10:52:18.359Z,6.57
2017-12-01T10:57:46.466Z,7.53
2017-12-01T11:03:14.599Z,9.43
2017-12-01T11:08:43.509Z,8.07
2017-12-01T11:14:11.633Z,6.07
2017-12-01T11:19:39.776Z,3.30
2017-12-01T11:25:08.681Z,3.20
2017-12-01T11:30:36.805Z,7.77
2017-12-01T11:36:04.943Z,5.33
2017-12-01T11:41:33.851Z,4.33
2017-12-01T11:47:01.999Z,4.20
2017-12-01T11:52:30.898Z,5.30
2017-12-01T11:57:59.042Z,5.53
2017-12-01T12:03:27.223Z,4.90
2017-12-01T12:08:55.350Z,3.07
2017-12-01T12:14:23.481Z,4.57
2017-12-01T12:19:51.609Z,4.90
2017-12-01T12:25:19.758Z,4.33
2017-12-01T12:30:48.654Z,4.60
2017-12-01T12:36:16.798Z,3.97
2017-12-01T12:41:44.919Z,2.57
2017-12-01T12:47:13.250Z,14.10
2017-12-01T12:52:42.163Z,7.33
2017-12-01T12:58:10.320Z,8.00
2017-12-01T13:03:39.205Z,9.03
2017-12-01T13:09:07.358Z,11.03
2017-12-01T13:14:35.486Z,9.40
2017-12-01T13:20:04.387Z,8.83
2017-12-01T13:25:32.521Z,10.90
2017-12-01T13:31:00.655Z,10.10
2017-12-01T13:36:28.839Z,9.70
2017-12-01T13:41:57.051Z,11.23
2017-12-01T13:47:25.208Z,13.23
2017-12-01T13:52:53.347Z,11.23
2017-12-01T13:58:21.489Z,14.53
2017-12-01T14:03:50.415Z,13.47
2017-12-01T14:09:19.322Z,12.07
2017-12-01T14:14:47.454Z,11.37
2017-12-01T14:20:15.568Z,10.47
2017-12-01T14:25:43.704Z,11.00
2017-12-01T14:31:11.848Z,11.20
2017-12-01T14:36:39.996Z,12.20
2017-12-01T14:42:08.128Z,13.40
2017-12-01T14:47:36.254Z,13.93
2017-12-01T14:53:04.389Z,14.00
2017-12-01T14:58:32.527Z,18.57
2017-12-01T15:04:01.432Z,19.80
2017-12-01T15:09:29.583Z,19.50
2017-12-01T15:14:58.491Z,13.67
2017-12-01T15:20:26.660Z,21.13
2017-12-01T15:25:54.905Z,16.97
2017-12-01T15:31:23.040Z,17.03
2017-12-01T15:36:51.183Z,25.33
2017-12-01T15:42:19.317Z,16.90
2017-12-01T15:47:48.259Z,17.17
2017-12-01T15:53:17.147Z,14.07
2017-12-01T15:58:45.289Z,16.50
2017-12-01T16:04:13.444Z,17.07
2017-12-01T16:09:41.570Z,16.13
2017-12-01T16:15:09.720Z,14.57
2017-12-01T16:20:37.859Z,18.93
2017-12-01T16:26:06.000Z,17.70
2017-12-01T16:31:34.196Z,17.53
2017-12-01T16:37:02.318Z,15.67
2017-12-01T16:42:30.452Z,17.13
2017-12-01T16:47:58.603Z,21.93
2017-12-01T16:53:26.763Z,21.10
2017-12-01T16:58:54.922Z,20.83
2017-12-01T17:04:23.087Z,18.80
2017-12-01T17:09:51.223Z,19.90
2017-12-01T17:15:19.364Z,19.03
2017-12-01T17:20:47.517Z,23.07
2017-12-01T17:26:15.663Z,31.53
2017-12-01T17:31:43.822Z,32.17
2017-12-01T17:37:11.985Z,16.97
2017-12-01T17:42:40.111Z,22.10
2017-12-01T17:48:08.258Z,21.93
2017-12-01T17:53:36.386Z,19.63
2017-12-01T17:59:04.523Z,19.93
2017-12-01T18:04:32.694Z,27.57
2017-12-01T18:10:00.844Z,26.00
2017-12-01T18:15:29.061Z,24.53
2017-12-01T18:20:57.216Z,25.30
2017-12-01T18:26:25.531Z,30.23
2017-12-01T18:31:54.455Z,27.47
2017-12-01T18:37:22.708Z,22.90
2017-12-01T18:42:51.619Z,33.53
2017-12-01T18:48:19.858Z,19.07
2017-12-01T18:53:50.881Z,21.70
2017-12-01T18:59:19.022Z,20.13
2017-12-01T19:04:47.170Z,19.40
2017-12-01T19:10:15.300Z,20.87
2017-12-01T19:15:43.436Z,22.10
2017-12-01T19:21:12.331Z,23.27
2017-12-01T19:26:40.468Z,19.77
2017-12-01T19:32:08.600Z,25.43
2017-12-01T19:37:37.520Z,21.40
2017-12-01T19:43:06.549Z,21.70
2017-12-01T19:48:34.705Z,18.40
2017-12-01T19:54:03.595Z,18.87
2017-12-01T19:59:33.692Z,21.73
2017-12-01T20:05:01.820Z,21.33
2017-12-01T20:10:30.767Z,23.33
2017-12-01T20:15:59.711Z,21.33
2017-12-01T20:21:27.890Z,24.13
2017-12-01T20:27:00.247Z,22.23
2017-12-01T20:32:29.171Z,28.80
2017-12-01T20:37:57.330Z,27.47
2017-12-01T20:43:25.497Z,28.40
2017-12-01T20:48:53.735Z,24.97
2017-12-01T20:54:22.662Z,26.03
2017-12-01T20:59:50.828Z,25.13
2017-12-01T21:05:23.531Z,26.63
2017-12-01T21:10:51.689Z,28.60
2017-12-01T21:16:19.857Z,28.70
2017-12-01T21:21:48.764Z,35.03
2017-12-01T21:27:16.905Z,26.33
2017-12-01T21:32:45.072Z,27.70
2017-12-01T21:38:13.214Z,32.90
2017-12-01T21:43:41.377Z,33.80
2017-12-01T21:49:10.295Z,33.53
2017-12-01T21:54:38.487Z,36.20
2017-12-01T22:00:06.626Z,34.17
2017-12-01T22:05:34.781Z,37.93
2017-12-01T22:11:03.690Z,39.03
2017-12-01T22:16:31.839Z,36.67
2017-12-01T22:22:00.005Z,41.60
2017-12-01T22:27:28.172Z,44.00
2017-12-01T22:33:03.121Z,44.33
2017-12-01T22:38:38.096Z,42.97
2017-12-01T22:44:06.267Z,46.10
2017-12-01T22:49:34.422Z,44.80
2017-12-01T22:55:02.562Z,45.67
2017-12-01T23:00:30.719Z,47.43
2017-12-01T23:05:58.908Z,40.57
2017-12-01T23:11:27.079Z,45.10
2017-12-01T23:16:55.220Z,42.60
2017-12-01T23:22:23.385Z,45.00
2017-12-01T23:27:52.315Z,38.90
2017-12-01T23:33:20.457Z,40.43
2017-12-01T23:38:48.630Z,32.97
2017-12-01T23:44:16.800Z,34.77
2017-12-01T23:49:44.940Z,38.63
2017-12-01T23:55:13.090Z,29.53
